sensor_id;sensor_type;location;lat;lon;timestamp;pressure;altitude;pressure_sealevel;temperature;humidity
56414;BME280;42318;48.452;19.526;2022-10-16T00:00:11;98791.28;;;18.17;58.82
56414;BME280;42318;48.452;19.526;2022-10-16T00:08:02;98800.63;;;18.21;59.18
56414;BME280;42318;48.452;19.526;2022-10-16T00:15:35;98801.66;;;18.20;59.20
56414;BME280;42318;48.452;19.526;2022-10-16T00:23:06;98802.72;;;18.19;58.98
56414;BME280;42318;48.452;19.526;2022-10-16T00:30:38;98810.25;;;18.17;59.12
56414;BME280;42318;48.452;19.526;2022-10-16T00:38:09;98814.63;;;18.18;58.97
56414;BME280;42318;48.452;19.526;2022-10-16T00:45:40;98822.75;;;18.18;59.07
56414;BME280;42318;48.452;19.526;2022-10-16T00:53:11;98827.59;;;18.16;58.64
56414;BME280;42318;48.452;19.526;2022-10-16T01:00:42;98823.22;;;18.15;58.94
56414;BME280;42318;48.452;19.526;2022-10-16T01:08:19;98825.69;;;18.16;58.91
56414;BME280;42318;48.452;19.526;2022-10-16T01:16:17;98834.91;;;18.15;59.13
56414;BME280;42318;48.452;19.526;2022-10-16T01:32:04;98849.53;;;18.14;59.07
56414;BME280;42318;48.452;19.526;2022-10-16T01:39:39;98829.72;;;18.02;59.17
56414;BME280;42318;48.452;19.526;2022-10-16T01:47:13;98840.44;;;18.09;59.08
56414;BME280;42318;48.452;19.526;2022-10-16T01:54:47;98832.06;;;18.10;58.94
56414;BME280;42318;48.452;19.526;2022-10-16T02:02:20;98837.50;;;18.10;58.96
56414;BME280;42318;48.452;19.526;2022-10-16T02:09:52;98836.66;;;18.10;59.13
56414;BME280;42318;48.452;19.526;2022-10-16T02:17:25;98847.50;;;18.10;59.20
56414;BME280;42318;48.452;19.526;2022-10-16T02:25:02;98853.41;;;18.07;59.15
56414;BME280;42318;48.452;19.526;2022-10-16T02:32:39;98850.47;;;18.08;59.03
56414;BME280;42318;48.452;19.526;2022-10-16T02:40:12;98865.91;;;18.08;59.01
56414;BME280;42318;48.452;19.526;2022-10-16T02:47:42;98871.31;;;18.08;59.04
56414;BME280;42318;48.452;19.526;2022-10-16T02:55:13;98875.09;;;18.07;58.92
56414;BME280;42318;48.452;19.526;2022-10-16T03:02:44;98868.03;;;18.06;58.98
56414;BME280;42318;48.452;19.526;2022-10-16T03:10:14;98878.28;;;18.04;59.03
56414;BME280;42318;48.452;19.526;2022-10-16T03:17:45;98881.00;;;18.04;58.93
56414;BME280;42318;48.452;19.526;2022-10-16T03:25:16;98879.34;;;18.03;58.83
56414;BME280;42318;48.452;19.526;2022-10-16T03:32:47;98866.84;;;18.02;59.07
56414;BME280;42318;48.452;19.526;2022-10-16T03:40:18;98884.75;;;18.03;59.19
56414;BME280;42318;48.452;19.526;2022-10-16T03:47:49;98891.25;;;18.02;58.90
56414;BME280;42318;48.452;19.526;2022-10-16T03:55:19;98897.72;;;18.01;59.04
56414;BME280;42318;48.452;19.526;2022-10-16T04:02:50;98905.84;;;18.01;59.18
56414;BME280;42318;48.452;19.526;2022-10-16T04:10:21;98888.50;;;17.78;58.85
56414;BME280;42318;48.452;19.526;2022-10-16T04:17:52;98922.00;;;17.96;58.96
56414;BME280;42318;48.452;19.526;2022-10-16T04:25:23;98922.00;;;17.96;59.04
56414;BME280;42318;48.452;19.526;2022-10-16T04:32:54;98924.25;;;17.99;59.16
56414;BME280;42318;48.452;19.526;2022-10-16T04:40:24;98927.19;;;17.97;59.06
56414;BME280;42318;48.452;19.526;2022-10-16T04:47:59;98933.66;;;17.96;59.15
56414;BME280;42318;48.452;19.526;2022-10-16T04:55:30;98935.44;;;17.91;58.76
56414;BME280;42318;48.452;19.526;2022-10-16T05:03:00;98946.16;;;17.97;59.02
56414;BME280;42318;48.452;19.526;2022-10-16T05:10:31;98947.47;;;17.95;59.15
56414;BME280;42318;48.452;19.526;2022-10-16T05:18:02;98945.81;;;17.94;59.04
56414;BME280;42318;48.452;19.526;2022-10-16T05:25:33;98945.81;;;17.94;59.12
56414;BME280;42318;48.452;19.526;2022-10-16T05:33:03;98962.06;;;17.94;58.98
56414;BME280;42318;48.452;19.526;2022-10-16T05:40:34;98971.25;;;17.93;59.15
56414;BME280;42318;48.452;19.526;2022-10-16T05:48:05;98965.56;;;17.82;59.38
56414;BME280;42318;48.452;19.526;2022-10-16T05:55:37;98985.41;;;17.95;59.25
56414;BME280;42318;48.452;19.526;2022-10-16T06:03:07;98997.31;;;17.94;59.27
56414;BME280;42318;48.452;19.526;2022-10-16T06:10:38;99004.41;;;17.95;59.71
56414;BME280;42318;48.452;19.526;2022-10-16T06:18:09;99012.28;;;17.96;59.72
56414;BME280;42318;48.452;19.526;2022-10-16T06:25:40;99010.41;;;17.97;59.97
56414;BME280;42318;48.452;19.526;2022-10-16T06:33:11;99008.31;;;17.99;59.91
56414;BME280;42318;48.452;19.526;2022-10-16T06:40:41;99017.84;;;18.01;59.83
56414;BME280;42318;48.452;19.526;2022-10-16T06:48:12;99033.44;;;18.06;59.85
56414;BME280;42318;48.452;19.526;2022-10-16T06:55:43;99051.34;;;18.07;59.73
56414;BME280;42318;48.452;19.526;2022-10-16T07:03:14;99051.34;;;18.07;59.62
56414;BME280;42318;48.452;19.526;2022-10-16T07:10:45;99069.66;;;18.11;59.58
56414;BME280;42318;48.452;19.526;2022-10-16T07:18:15;99096.09;;;18.16;59.52
56414;BME280;42318;48.452;19.526;2022-10-16T07:25:53;99116.94;;;18.15;59.46
56414;BME280;42318;48.452;19.526;2022-10-16T07:33:23;99111.53;;;18.15;59.72
56414;BME280;42318;48.452;19.526;2022-10-16T07:41:03;99116.94;;;18.15;59.44
56414;BME280;42318;48.452;19.526;2022-10-16T07:48:35;99112.34;;;18.16;59.58
56414;BME280;42318;48.452;19.526;2022-10-16T07:56:07;99130.28;;;18.17;59.38
56414;BME280;42318;48.452;19.526;2022-10-16T08:03:41;99122.16;;;18.17;59.34
56414;BME280;42318;48.452;19.526;2022-10-16T08:11:12;99126.28;;;18.19;59.11
56414;BME280;42318;48.452;19.526;2022-10-16T08:18:44;99122.75;;;18.19;59.35
56414;BME280;42318;48.452;19.526;2022-10-16T08:26:15;99132.78;;;18.18;59.44
56414;BME280;42318;48.452;19.526;2022-10-16T08:33:46;99128.16;;;18.19;59.13
56414;BME280;42318;48.452;19.526;2022-10-16T08:41:29;99125.47;;;18.19;59.25
56414;BME280;42318;48.452;19.526;2022-10-16T08:49:03;99132.53;;;18.20;59.20
56414;BME280;42318;48.452;19.526;2022-10-16T08:56:37;99150.50;;;18.21;59.24
56414;BME280;42318;48.452;19.526;2022-10-16T09:12:23;99169.25;;;18.23;59.33
56414;BME280;42318;48.452;19.526;2022-10-16T09:27:52;99204.06;;;18.26;59.19
56414;BME280;42318;48.452;19.526;2022-10-16T09:35:38;99196.75;;;18.26;59.38
56414;BME280;42318;48.452;19.526;2022-10-16T09:43:20;99207.63;;;18.26;59.03
56414;BME280;42318;48.452;19.526;2022-10-16T09:51:00;99207.63;;;18.26;59.27
56414;BME280;42318;48.452;19.526;2022-10-16T09:58:32;99206.19;;;18.24;59.10
56414;BME280;42318;48.452;19.526;2022-10-16T10:06:17;99195.34;;;18.24;59.13
56414;BME280;42318;48.452;19.526;2022-10-16T10:13:49;99191.78;;;18.23;59.33
56414;BME280;42318;48.452;19.526;2022-10-16T10:21:19;99198.28;;;18.22;59.24
56414;BME280;42318;48.452;19.526;2022-10-16T11:15:45;99189.00;;;18.30;59.20
56414;BME280;42318;48.452;19.526;2022-10-16T11:23:28;99192.53;;;18.30;59.31
56414;BME280;42318;48.452;19.526;2022-10-16T11:46:22;99169.91;;;18.36;59.24
56414;BME280;42318;48.452;19.526;2022-10-16T11:54:22;99177.00;;;18.37;59.02
56414;BME280;42318;48.452;19.526;2022-10-16T12:09:53;99181.38;;;18.38;59.13
56414;BME280;42318;48.452;19.526;2022-10-16T12:17:27;99181.13;;;18.40;59.19
56414;BME280;42318;48.452;19.526;2022-10-16T12:25:04;99180.09;;;18.41;59.51
56414;BME280;42318;48.452;19.526;2022-10-16T12:32:37;99186.94;;;18.43;59.27
56414;BME280;42318;48.452;19.526;2022-10-16T12:40:25;99191.31;;;18.44;59.44
56414;BME280;42318;48.452;19.526;2022-10-16T12:48:00;99191.31;;;18.44;59.44
56414;BME280;42318;48.452;19.526;2022-10-16T12:55:41;99188.59;;;18.44;60.02
56414;BME280;42318;48.452;19.526;2022-10-16T13:11:05;99188.38;;;18.46;60.04
56414;BME280;42318;48.452;19.526;2022-10-16T13:33:46;99193.34;;;18.49;59.82
56414;BME280;42318;48.452;19.526;2022-10-16T13:41:18;99199.59;;;18.49;59.72
56414;BME280;42318;48.452;19.526;2022-10-16T13:49:17;99206.66;;;18.50;59.56
56414;BME280;42318;48.452;19.526;2022-10-16T13:56:47;99195.00;;;18.50;59.76
56414;BME280;42318;48.452;19.526;2022-10-16T14:04:18;99188.78;;;18.61;59.55
56414;BME280;42318;48.452;19.526;2022-10-16T14:11:52;99192.78;;;18.59;59.51
56414;BME280;42318;48.452;19.526;2022-10-16T14:19:27;99207.88;;;18.55;59.57
56414;BME280;42318;48.452;19.526;2022-10-16T14:26:59;99200.78;;;18.53;59.71
56414;BME280;42318;48.452;19.526;2022-10-16T14:34:37;99204.56;;;18.52;59.65
56414;BME280;42318;48.452;19.526;2022-10-16T14:42:18;99209.97;;;18.52;59.77
56414;BME280;42318;48.452;19.526;2022-10-16T14:49:53;99219.56;;;18.55;59.82
56414;BME280;42318;48.452;19.526;2022-10-16T14:57:31;99224.53;;;18.58;59.96
56414;BME280;42318;48.452;19.526;2022-10-16T15:05:13;99215.50;;;18.64;59.91
56414;BME280;42318;48.452;19.526;2022-10-16T15:12:45;99217.56;;;18.69;59.49
56414;BME280;42318;48.452;19.526;2022-10-16T15:20:16;99225.59;;;18.75;59.30
56414;BME280;42318;48.452;19.526;2022-10-16T15:27:46;99215.66;;;18.69;59.26
56414;BME280;42318;48.452;19.526;2022-10-16T15:35:17;99229.75;;;18.78;59.19
56414;BME280;42318;48.452;19.526;2022-10-16T15:42:48;99232.13;;;18.86;58.93
56414;BME280;42318;48.452;19.526;2022-10-16T15:50:19;99240.88;;;18.88;59.04
56414;BME280;42318;48.452;19.526;2022-10-16T15:57:50;99247.97;;;18.89;58.82
56414;BME280;42318;48.452;19.526;2022-10-16T16:05:21;99251.50;;;18.90;58.75
56414;BME280;42318;48.452;19.526;2022-10-16T16:12:52;99247.81;;;18.84;58.83
56414;BME280;42318;48.452;19.526;2022-10-16T16:20:23;99267.78;;;18.90;58.65
56414;BME280;42318;48.452;19.526;2022-10-16T16:27:54;99284.47;;;18.93;58.61
56414;BME280;42318;48.452;19.526;2022-10-16T16:35:24;99296.59;;;18.91;58.50
56414;BME280;42318;48.452;19.526;2022-10-16T16:42:55;99290.50;;;18.95;58.66
56414;BME280;42318;48.452;19.526;2022-10-16T16:50:26;99308.44;;;18.96;58.53
56414;BME280;42318;48.452;19.526;2022-10-16T16:57:57;99323.91;;;18.96;58.63
56414;BME280;42318;48.452;19.526;2022-10-16T17:05:27;99326.25;;;18.92;58.56
56414;BME280;42318;48.452;19.526;2022-10-16T17:12:58;99342.69;;;18.97;58.43
56414;BME280;42318;48.452;19.526;2022-10-16T17:20:29;99345.16;;;18.99;58.82
56414;BME280;42318;48.452;19.526;2022-10-16T17:28:00;99353.09;;;19.00;58.40
56414;BME280;42318;48.452;19.526;2022-10-16T17:43:08;99354.97;;;19.00;58.04
56414;BME280;42318;48.452;19.526;2022-10-16T17:50:40;99373.06;;;19.06;58.06
56414;BME280;42318;48.452;19.526;2022-10-16T17:58:11;99371.81;;;19.08;58.15
56414;BME280;42318;48.452;19.526;2022-10-16T18:05:41;99382.06;;;19.06;58.35
56414;BME280;42318;48.452;19.526;2022-10-16T18:13:13;99392.25;;;19.11;58.03
56414;BME280;42318;48.452;19.526;2022-10-16T18:20:43;99384.94;;;19.11;58.09
56414;BME280;42318;48.452;19.526;2022-10-16T18:28:14;99390.38;;;19.11;58.04
56414;BME280;42318;48.452;19.526;2022-10-16T18:35:45;99381.41;;;19.11;58.06
56414;BME280;42318;48.452;19.526;2022-10-16T18:43:16;99382.69;;;19.08;57.34
56414;BME280;42318;48.452;19.526;2022-10-16T18:50:48;99416.03;;;19.16;57.65
56414;BME280;42318;48.452;19.526;2022-10-16T18:58:20;99403.13;;;19.11;57.66
56414;BME280;42318;48.452;19.526;2022-10-16T19:05:50;99423.13;;;19.17;57.62
56414;BME280;42318;48.452;19.526;2022-10-16T19:13:21;99423.94;;;19.17;57.70
56414;BME280;42318;48.452;19.526;2022-10-16T19:20:52;99430.91;;;19.13;57.67
56414;BME280;42318;48.452;19.526;2022-10-16T19:28:23;99453.38;;;19.20;57.75
56414;BME280;42318;48.452;19.526;2022-10-16T19:35:53;99462.34;;;19.21;57.50
56414;BME280;42318;48.452;19.526;2022-10-16T19:43:24;99460.94;;;19.18;57.73
56414;BME280;42318;48.452;19.526;2022-10-16T19:50:55;99469.44;;;19.22;57.41
56414;BME280;42318;48.452;19.526;2022-10-16T19:58:26;99484.09;;;19.21;57.75
56414;BME280;42318;48.452;19.526;2022-10-16T20:05:57;99486.81;;;19.21;57.44
56414;BME280;42318;48.452;19.526;2022-10-16T20:13:28;99490.34;;;19.21;57.42
56414;BME280;42318;48.452;19.526;2022-10-16T20:20:59;99496.63;;;19.22;57.36
56414;BME280;42318;48.452;19.526;2022-10-16T20:28:30;99500.16;;;19.22;57.49
56414;BME280;42318;48.452;19.526;2022-10-16T20:36:01;99493.97;;;19.15;57.26
56414;BME280;42318;48.452;19.526;2022-10-16T20:43:32;99518.97;;;19.24;57.48
56414;BME280;42318;48.452;19.526;2022-10-16T20:51:10;99513.53;;;19.24;57.21
56414;BME280;42318;48.452;19.526;2022-10-16T20:58:41;99517.91;;;19.25;57.25
56414;BME280;42318;48.452;19.526;2022-10-16T21:06:12;99520.63;;;19.25;57.06
56414;BME280;42318;48.452;19.526;2022-10-16T21:13:43;99524.41;;;19.24;57.43
56414;BME280;42318;48.452;19.526;2022-10-16T21:28:55;99533.38;;;19.24;57.24
56414;BME280;42318;48.452;19.526;2022-10-16T21:36:28;99549.44;;;19.26;57.23
56414;BME280;42318;48.452;19.526;2022-10-16T21:43:59;99541.31;;;19.26;57.32
56414;BME280;42318;48.452;19.526;2022-10-16T21:51:32;99551.13;;;19.27;57.18
56414;BME280;42318;48.452;19.526;2022-10-16T21:59:04;99556.31;;;19.28;57.09
56414;BME280;42318;48.452;19.526;2022-10-16T22:06:35;99556.53;;;19.27;57.01
56414;BME280;42318;48.452;19.526;2022-10-16T22:14:13;99564.25;;;19.30;57.28
56414;BME280;42318;48.452;19.526;2022-10-16T22:21:46;99556.31;;;19.28;57.00
56414;BME280;42318;48.452;19.526;2022-10-16T22:29:17;99562.59;;;19.29;57.23
56414;BME280;42318;48.452;19.526;2022-10-16T22:36:48;99567.19;;;19.28;56.95
56414;BME280;42318;48.452;19.526;2022-10-16T22:44:20;99565.31;;;19.29;57.17
56414;BME280;42318;48.452;19.526;2022-10-16T22:51:50;99564.47;;;19.28;56.95
56414;BME280;42318;48.452;19.526;2022-10-16T22:59:21;99565.06;;;19.30;57.06
56414;BME280;42318;48.452;19.526;2022-10-16T23:06:52;99569.31;;;19.26;56.89
56414;BME280;42318;48.452;19.526;2022-10-16T23:14:22;99579.50;;;19.31;56.94
56414;BME280;42318;48.452;19.526;2022-10-16T23:21:53;99581.38;;;19.30;57.02
56414;BME280;42318;48.452;19.526;2022-10-16T23:29:24;99592.84;;;19.32;56.90
56414;BME280;42318;48.452;19.526;2022-10-16T23:36:55;99594.75;;;19.32;56.81
56414;BME280;42318;48.452;19.526;2022-10-16T23:44:26;99610.00;;;19.33;56.90
56414;BME280;42318;48.452;19.526;2022-10-16T23:51:56;99610.00;;;19.33;56.89
56414;BME280;42318;48.452;19.526;2022-10-16T23:59:27;99589.44;;;19.19;56.96
